Messwerte Seoul

Temperatur

Temperatur
°C
1659902400 5.00 5.00 28
1659906000 6.00 6.00 28
1659909600 7.00 7.00 27
1659913200 8.00 8.00 28
1659916800 9.00 9.00 28
1659920400 10.00 10.00 28
1659924000 11.00 11.00 28
1659927600 12.00 12.00
1659931200 13.00 13.00 25
1659934800 14.00 14.00 26
1659938400 15.00 15.00
1659942000 16.00 16.00 26
1659945600 17.00 17.00
1659949200 18.00 18.00 25
1659952800 19.00 19.00 27
1659956400 20.00 20.00 27
1659960000 21.00 21.00 27
1659963600 22.00 22.00 27
1659967200 23.00 23.00 26
1659970800 0.00 0.00 26
1659974400 1.00 1.00 26
1659978000 2.00 2.00 26
1659981600 3.00 3.00 26
1659985200 4.00 4.00 26

Aktuellste Messwerte

Wettercharakter
Wetter: bedeckt, wenig Regen
Temperatur
26 °C
Feuchtigkeit
100 %
Wind
5 km/hWindrichtung: Süd
Luftdruck
1006 hPa
Messzeit: 9. August 2022, 5.00Datenquelle: METAR

Weitere Messstationen in der Nähe

Messstation Temperatur Entfernung
Incheon 26 °C 17 km
Osan 25 °C 57 km
Chongju 25 °C 114 km
Chungju 26 °C 123 km
Yangyang 27 °C 175 km
Gusan 28 °C 184 km
Taegu Ab 28 °C 251 km

Wind

Windrichtung Böen Mittelwind
° km/h km/h
1659902400 5.00 4.00 - 5.00 200° 20
1659906000 6.00 5.00 - 6.00 190° 20
1659909600 7.00 6.00 - 7.00 190° 15
1659913200 8.00 7.00 - 8.00 200° 15
1659916800 9.00 8.00 - 9.00 200° 20
1659920400 10.00 9.00 - 10.00 190° 20
1659924000 11.00 10.00 - 11.00 200° 25
1659927600 12.00 11.00 - 12.00
1659931200 13.00 12.00 - 13.00 230° 20
1659934800 14.00 13.00 - 14.00 170° 5
1659938400 15.00 14.00 - 15.00
1659942000 16.00 15.00 - 16.00 160° 35 15
1659945600 17.00 16.00 - 17.00
1659949200 18.00 17.00 - 18.00 220° 75 25
1659952800 19.00 18.00 - 19.00 220° 20
1659956400 20.00 19.00 - 20.00 270° 10
1659960000 21.00 20.00 - 21.00 290° 5
1659963600 22.00 21.00 - 22.00 180° 5
1659967200 23.00 22.00 - 23.00 210° 5
1659970800 0.00 23.00 - 0.00 220° 10
1659974400 1.00 0.00 - 1.00 200° 10
1659978000 2.00 1.00 - 2.00 220° 5
1659981600 3.00 2.00 - 3.00 210° 5
1659985200 4.00 3.00 - 4.00 280° 5

Ihre Wetterstation

Fehlt Ihre Wetterstation auf unserem Portal?

Schreiben Sie an network@meteonews.ch

Klima

Wann ist es am wärmsten? Wann regnet es am wenigsten? Unsere Klimadaten geben Auskunft.